createdAt,value
2023-04-11T00:01:51.448Z,110.40
2023-04-11T00:04:21.146Z,110.50
2023-04-11T00:06:49.664Z,110.03
2023-04-11T00:09:18.106Z,107.33
2023-04-11T00:11:46.423Z,107.40
2023-04-11T00:14:15.369Z,106.03
2023-04-11T00:16:45.030Z,105.37
2023-04-11T00:19:13.307Z,109.00
2023-04-11T00:21:41.628Z,106.90
2023-04-11T00:24:10.320Z,105.70
2023-04-11T00:26:38.622Z,105.53
2023-04-11T00:29:06.943Z,105.37
2023-04-11T00:31:35.651Z,105.20
2023-04-11T00:34:05.752Z,104.73
2023-04-11T00:36:34.061Z,102.27
2023-04-11T00:39:02.510Z,104.50
2023-04-11T00:41:30.860Z,103.40
2023-04-11T00:43:59.042Z,103.70
2023-04-11T00:46:28.122Z,102.00
2023-04-11T00:48:57.136Z,101.77
2023-04-11T00:51:27.468Z,101.13
2023-04-11T00:53:55.926Z,102.23
2023-04-11T00:56:24.237Z,100.53
2023-04-11T00:58:52.890Z,99.80
2023-04-11T01:01:25.172Z,99.17
2023-04-11T01:03:53.829Z,98.07
2023-04-11T01:06:22.917Z,101.53
2023-04-11T01:08:52.976Z,97.93
2023-04-11T01:11:22.097Z,98.93
2023-04-11T01:13:52.703Z,99.23
2023-04-11T01:16:21.949Z,97.00
2023-04-11T01:18:50.774Z,97.30
2023-04-11T01:21:20.650Z,99.57
2023-04-11T01:23:52.985Z,98.43
2023-04-11T01:26:21.607Z,101.90
2023-04-11T01:28:49.937Z,100.80
2023-04-11T01:31:18.175Z,97.97
2023-04-11T01:33:46.572Z,98.50
2023-04-11T01:36:15.308Z,95.63
2023-04-11T01:38:43.810Z,97.10
2023-04-11T01:41:14.534Z,97.63
2023-04-11T01:43:43.216Z,91.90
2023-04-11T01:46:13.096Z,90.23
2023-04-11T01:48:42.101Z,89.67
2023-04-11T01:51:10.690Z,84.40
2023-04-11T01:53:39.008Z,83.23
2023-04-11T01:56:08.569Z,78.37
2023-04-11T01:58:38.056Z,73.97
2023-04-11T02:01:06.739Z,65.60
2023-04-11T02:03:37.152Z,64.43
2023-04-11T02:06:06.137Z,65.60
2023-04-11T02:08:34.377Z,67.37
2023-04-11T02:11:02.778Z,69.17
2023-04-11T02:13:30.980Z,69.20
2023-04-11T02:16:07.644Z,72.23
2023-04-11T02:18:37.460Z,72.70
2023-04-11T02:21:06.751Z,73.40
2023-04-11T02:23:35.551Z,74.67
2023-04-11T02:26:04.706Z,73.43
2023-04-11T02:28:33.026Z,74.37
2023-04-11T02:31:03.477Z,72.27
2023-04-11T02:33:32.472Z,72.63
2023-04-11T02:36:00.647Z,73.10
2023-04-11T02:38:28.960Z,75.00
2023-04-11T02:40:57.150Z,76.73
2023-04-11T02:43:25.467Z,81.23
2023-04-11T02:45:59.228Z,73.70
2023-04-11T02:48:39.272Z,69.57
2023-04-11T02:51:08.075Z,68.30
2023-04-11T02:53:36.280Z,65.80
2023-04-11T02:56:04.845Z,64.17
2023-04-11T02:58:33.412Z,65.40
2023-04-11T03:01:01.886Z,59.27
2023-04-11T03:03:30.105Z,61.13
2023-04-11T03:06:00.287Z,54.47
2023-04-11T03:08:28.717Z,53.97
2023-04-11T03:10:57.042Z,52.63
2023-04-11T03:13:26.205Z,51.57
2023-04-11T03:15:54.552Z,51.57
2023-04-11T03:18:23.563Z,49.20
2023-04-11T03:20:52.493Z,49.57
2023-04-11T03:23:22.132Z,49.27
2023-04-11T03:25:51.073Z,51.43
2023-04-11T03:28:19.368Z,49.93
2023-04-11T03:30:48.945Z,48.33
2023-04-11T03:33:17.222Z,48.67
2023-04-11T03:35:45.455Z,49.87
2023-04-11T03:38:13.850Z,50.47
2023-04-11T03:40:43.496Z,53.30
2023-04-11T03:43:12.188Z,51.97
2023-04-11T03:45:40.495Z,52.77
2023-04-11T03:48:08.853Z,53.60
2023-04-11T03:50:37.269Z,51.30
2023-04-11T03:53:05.939Z,52.27
2023-04-11T03:55:34.290Z,50.07
2023-04-11T03:58:04.030Z,48.10
2023-04-11T04:00:32.592Z,48.97
2023-04-11T04:03:01.095Z,50.30
2023-04-11T04:05:29.586Z,49.30
2023-04-11T04:07:57.777Z,50.63
2023-04-11T04:10:26.107Z,51.77
2023-04-11T04:12:55.624Z,52.70
2023-04-11T04:15:25.394Z,52.33
2023-04-11T04:17:53.629Z,52.70
2023-04-11T04:20:22.025Z,52.90
2023-04-11T04:22:53.235Z,55.63
2023-04-11T04:25:22.144Z,53.93
2023-04-11T04:27:54.192Z,54.73
2023-04-11T04:30:24.188Z,54.27
2023-04-11T04:32:54.858Z,54.27
2023-04-11T04:35:23.597Z,51.63
2023-04-11T04:37:52.031Z,48.63
2023-04-11T04:40:21.515Z,47.47
2023-04-11T04:42:58.461Z,41.67
2023-04-11T04:45:28.421Z,40.17
2023-04-11T04:47:56.772Z,39.93
2023-04-11T04:50:24.941Z,37.80
2023-04-11T04:52:53.363Z,37.47
2023-04-11T04:55:21.558Z,36.77
2023-04-11T04:57:49.894Z,36.17
2023-04-11T05:00:19.129Z,34.13
2023-04-11T05:02:50.120Z,34.83
2023-04-11T05:05:18.562Z,36.37
2023-04-11T05:07:46.886Z,35.30
2023-04-11T05:10:15.088Z,36.17
2023-04-11T05:12:43.288Z,36.97
2023-04-11T05:15:12.682Z,37.40
2023-04-11T05:17:41.063Z,36.40
2023-04-11T05:20:12.099Z,35.97
2023-04-11T05:22:40.651Z,39.37
2023-04-11T05:25:12.019Z,39.87
2023-04-11T05:27:40.530Z,39.77
2023-04-11T05:30:10.049Z,40.80
2023-04-11T05:32:38.420Z,38.77
2023-04-11T05:35:07.429Z,40.97
2023-04-11T05:37:37.433Z,39.70
2023-04-11T05:40:09.222Z,42.57
2023-04-11T05:42:37.932Z,43.10
2023-04-11T05:45:07.202Z,43.97
2023-04-11T05:47:35.673Z,45.30
2023-04-11T05:50:03.835Z,47.57
2023-04-11T05:52:32.140Z,47.80
2023-04-11T05:55:01.818Z,48.50
2023-04-11T05:57:30.099Z,46.37
2023-04-11T06:00:02.180Z,45.03
2023-04-11T06:02:30.803Z,54.07
2023-04-11T06:04:59.429Z,42.10
2023-04-11T06:07:28.550Z,40.70
2023-04-11T06:09:56.990Z,41.73
2023-04-11T06:12:26.741Z,43.97
2023-04-11T06:14:55.059Z,44.83
2023-04-11T06:17:23.539Z,44.87
2023-04-11T06:19:52.065Z,46.33
2023-04-11T06:22:20.505Z,46.47
2023-04-11T06:24:49.204Z,45.10
2023-04-11T06:27:17.873Z,45.87
2023-04-11T06:29:48.018Z,43.00
2023-04-11T06:32:16.551Z,40.03
2023-04-11T06:34:45.111Z,37.53
2023-04-11T06:37:13.558Z,35.70
2023-04-11T06:39:42.118Z,34.33
2023-04-11T06:42:10.920Z,32.73
2023-04-11T06:44:39.404Z,30.03
2023-04-11T06:47:09.241Z,29.00
2023-04-11T06:49:37.796Z,30.23
2023-04-11T06:52:06.477Z,31.10
2023-04-11T06:54:34.925Z,29.50
2023-04-11T06:57:03.604Z,27.70
2023-04-11T06:59:32.054Z,26.03
2023-04-11T07:02:01.006Z,27.20
2023-04-11T07:04:31.260Z,25.20
2023-04-11T07:06:59.767Z,25.67
2023-04-11T07:09:28.205Z,25.40
2023-04-11T07:11:56.768Z,23.23
2023-04-11T07:14:25.209Z,23.17
2023-04-11T07:16:53.679Z,23.10
2023-04-11T07:19:22.109Z,22.90
2023-04-11T07:21:51.732Z,23.50
2023-04-11T07:24:21.141Z,21.93
2023-04-11T07:26:50.677Z,21.67
2023-04-11T07:29:19.099Z,21.77
2023-04-11T07:31:47.733Z,21.00
2023-04-11T07:34:16.094Z,21.13
2023-04-11T07:36:44.538Z,20.80
2023-04-11T07:39:15.025Z,20.80
2023-04-11T07:41:43.458Z,20.50
2023-04-11T07:44:11.916Z,20.10
2023-04-11T07:46:40.335Z,21.80
2023-04-11T07:49:08.773Z,20.67
2023-04-11T07:51:37.215Z,20.23
2023-04-11T07:54:05.654Z,20.27
2023-04-11T07:56:35.434Z,20.83
2023-04-11T07:59:04.575Z,20.53
2023-04-11T08:01:33.389Z,20.33
2023-04-11T08:04:02.424Z,20.43
2023-04-11T08:06:31.833Z,20.03
2023-04-11T08:09:01.120Z,20.07
2023-04-11T08:11:29.552Z,19.57
2023-04-11T08:13:59.397Z,21.03
2023-04-11T08:16:27.924Z,21.40
2023-04-11T08:18:57.428Z,19.50
2023-04-11T08:21:26.193Z,20.10
2023-04-11T08:23:55.093Z,19.97
2023-04-11T08:26:23.797Z,20.33
2023-04-11T08:28:52.112Z,19.67
2023-04-11T08:31:22.142Z,20.30
2023-04-11T08:33:50.691Z,19.07
2023-04-11T08:36:19.115Z,19.93
2023-04-11T08:38:47.443Z,20.37
2023-04-11T08:41:15.880Z,20.70
2023-04-11T08:43:46.002Z,21.97
2023-04-11T08:46:14.720Z,19.87
2023-04-11T08:48:44.681Z,20.17
2023-04-11T08:51:14.824Z,19.40
2023-04-11T08:53:44.077Z,20.57
2023-04-11T08:56:17.562Z,20.37
2023-04-11T08:58:46.483Z,19.97
2023-04-11T09:01:34.180Z,19.80
2023-04-11T09:04:06.451Z,19.80
2023-04-11T09:06:35.678Z,19.77
2023-04-11T09:09:06.567Z,19.73
2023-04-11T09:11:52.861Z,20.33
2023-04-11T09:14:26.129Z,19.43
2023-04-11T09:16:59.232Z,19.67
2023-04-11T09:19:30.763Z,19.40
2023-04-11T09:22:01.147Z,20.73
2023-04-11T09:24:32.035Z,20.20
2023-04-11T09:27:12.314Z,20.40
2023-04-11T09:29:43.143Z,20.27
2023-04-11T09:32:32.916Z,21.30
2023-04-11T09:35:13.611Z,20.87
2023-04-11T09:37:46.978Z,20.40
2023-04-11T09:40:16.773Z,20.60
2023-04-11T09:42:47.098Z,20.00
2023-04-11T09:45:20.222Z,18.90
2023-04-11T09:47:50.654Z,20.00
2023-04-11T09:50:21.200Z,19.93
2023-04-11T09:52:50.601Z,20.27
2023-04-11T09:55:21.462Z,20.03
2023-04-11T09:57:51.557Z,20.47
2023-04-11T10:00:22.468Z,20.43
2023-04-11T10:02:54.256Z,20.87
2023-04-11T10:05:28.096Z,22.13
2023-04-11T10:08:04.151Z,20.00
2023-04-11T10:10:33.187Z,20.27
2023-04-11T10:13:01.632Z,20.00
2023-04-11T10:15:30.560Z,20.60
2023-04-11T10:18:12.597Z,20.23
2023-04-11T10:20:50.344Z,20.60
2023-04-11T10:23:19.031Z,20.13
2023-04-11T10:25:56.467Z,20.33
2023-04-11T10:28:42.673Z,20.17
2023-04-11T10:31:14.367Z,20.10
2023-04-11T10:34:12.921Z,19.73
2023-04-11T10:37:04.878Z,19.73
2023-04-11T10:40:09.909Z,19.77
2023-04-11T10:42:40.443Z,20.43
2023-04-11T10:45:25.396Z,19.63
2023-04-11T10:48:10.524Z,19.67
2023-04-11T10:50:44.611Z,20.87
2023-04-11T10:56:09.561Z,19.50
2023-04-11T10:58:40.549Z,20.70
2023-04-11T11:01:26.035Z,21.73
2023-04-11T11:04:06.381Z,20.10
2023-04-11T11:06:46.248Z,19.90
2023-04-11T11:09:23.358Z,20.83
2023-04-11T11:14:48.466Z,20.47
2023-04-11T11:17:17.988Z,46.03
2023-04-11T11:19:47.211Z,19.30
2023-04-11T11:22:25.783Z,20.03
2023-04-11T11:24:54.693Z,20.70
2023-04-11T11:27:24.187Z,20.13
2023-04-11T11:29:54.446Z,20.00
2023-04-11T11:32:25.302Z,20.50
2023-04-11T11:34:55.538Z,19.30
2023-04-11T11:37:24.115Z,19.43
2023-04-11T11:39:53.017Z,20.40
2023-04-11T11:42:21.693Z,19.37
2023-04-11T11:44:50.140Z,19.60
2023-04-11T11:47:20.010Z,19.30
2023-04-11T11:49:50.493Z,18.80
2023-04-11T11:52:34.214Z,19.83
2023-04-11T11:55:03.351Z,23.90
2023-04-11T11:57:31.946Z,19.30
2023-04-11T12:00:05.874Z,19.77
2023-04-11T12:02:37.251Z,19.90
2023-04-11T12:05:07.887Z,20.00
2023-04-11T12:07:39.233Z,20.60
2023-04-11T12:10:09.529Z,21.30
2023-04-11T12:12:41.146Z,19.67
2023-04-11T12:15:12.712Z,19.53
2023-04-11T12:17:43.107Z,20.00
2023-04-11T12:20:12.229Z,19.47
2023-04-11T12:22:41.041Z,20.23
2023-04-11T12:25:10.912Z,19.50
2023-04-11T12:27:40.567Z,19.27
2023-04-11T12:30:10.192Z,19.97
2023-04-11T12:32:39.129Z,19.70
2023-04-11T12:35:10.310Z,20.50
2023-04-11T12:37:39.244Z,19.60
2023-04-11T12:40:11.128Z,19.50
2023-04-11T12:42:45.741Z,20.67
2023-04-11T12:45:22.092Z,20.40
2023-04-11T12:47:50.545Z,19.70
2023-04-11T12:50:23.062Z,20.13
2023-04-11T12:52:51.662Z,20.50
2023-04-11T12:55:20.102Z,20.10
2023-04-11T12:57:48.719Z,19.77
2023-04-11T13:00:18.027Z,19.97
2023-04-11T13:02:47.137Z,20.07
2023-04-11T13:05:17.945Z,19.90
2023-04-11T13:07:47.897Z,19.93
2023-04-11T13:10:17.165Z,19.83
2023-04-11T13:12:46.694Z,19.97
2023-04-11T13:15:16.375Z,20.27
2023-04-11T13:17:45.186Z,20.23
2023-04-11T13:20:14.623Z,19.97
2023-04-11T13:22:44.425Z,19.90
2023-04-11T13:25:14.355Z,20.30
2023-04-11T13:27:43.456Z,19.40
2023-04-11T13:30:12.912Z,19.47
2023-04-11T13:32:41.733Z,19.60
2023-04-11T13:35:11.332Z,19.53
2023-04-11T13:37:40.100Z,19.50
2023-04-11T13:40:13.937Z,20.43
2023-04-11T13:42:42.278Z,19.33
2023-04-11T13:45:11.426Z,19.53
2023-04-11T13:47:39.801Z,19.00
2023-04-11T13:50:10.125Z,19.30
2023-04-11T13:52:38.662Z,18.37
2023-04-11T13:55:07.849Z,18.57
2023-04-11T13:57:37.583Z,19.17
2023-04-11T14:00:11.233Z,18.43
2023-04-11T14:02:40.757Z,18.70
2023-04-11T14:05:10.833Z,19.30
2023-04-11T14:07:39.415Z,19.03
2023-04-11T14:10:08.576Z,18.87
2023-04-11T14:12:38.445Z,18.80
2023-04-11T14:15:09.162Z,19.17
2023-04-11T14:17:37.656Z,19.50
2023-04-11T14:20:07.721Z,19.40
2023-04-11T14:22:36.632Z,19.30
2023-04-11T14:25:05.792Z,19.17
2023-04-11T14:27:34.363Z,19.60
2023-04-11T14:30:04.722Z,19.07
2023-04-11T14:32:33.274Z,20.57
2023-04-11T14:35:02.504Z,18.90
2023-04-11T14:37:31.979Z,18.27
2023-04-11T14:40:00.522Z,19.27
2023-04-11T14:42:30.035Z,19.80
2023-04-11T14:44:58.597Z,18.40
2023-04-11T14:47:28.421Z,18.57
2023-04-11T14:49:58.597Z,18.67
2023-04-11T14:52:27.160Z,18.90
2023-04-11T14:54:55.598Z,18.77
2023-04-11T14:57:24.405Z,18.70
2023-04-11T14:59:52.728Z,19.10
2023-04-11T15:02:21.586Z,19.37
2023-04-11T15:04:53.571Z,18.87
2023-04-11T15:07:22.484Z,19.10
2023-04-11T15:09:50.920Z,19.23
2023-04-11T15:12:19.362Z,18.90
2023-04-11T15:14:47.685Z,19.03
2023-04-11T15:17:16.123Z,20.43
2023-04-11T15:19:44.451Z,18.57
2023-04-11T15:22:14.334Z,18.87
2023-04-11T15:24:43.253Z,19.50
2023-04-11T15:27:11.943Z,19.30
2023-04-11T15:29:40.250Z,19.60
2023-04-11T15:32:08.942Z,20.40
2023-04-11T15:34:37.372Z,19.50
2023-04-11T15:37:13.261Z,20.20
2023-04-11T15:39:43.031Z,19.20
2023-04-11T15:42:11.871Z,19.00
2023-04-11T15:44:40.375Z,18.60
2023-04-11T15:47:08.740Z,19.10
2023-04-11T15:49:37.257Z,18.97
2023-04-11T15:52:06.056Z,18.97
2023-04-11T15:54:34.736Z,18.67
2023-04-11T15:57:04.751Z,20.40
2023-04-11T15:59:34.259Z,18.57
2023-04-11T16:02:02.865Z,18.93
2023-04-11T16:04:31.331Z,18.97
2023-04-11T16:06:59.830Z,18.67
2023-04-11T16:09:28.745Z,18.40
2023-04-11T16:11:57.186Z,18.70
2023-04-11T16:14:27.192Z,18.23
2023-04-11T16:16:55.630Z,18.33
2023-04-11T16:19:24.307Z,18.37
2023-04-11T16:21:52.630Z,18.33
2023-04-11T16:24:21.066Z,18.23
2023-04-11T16:26:49.635Z,18.50
2023-04-11T16:29:18.081Z,18.37
2023-04-11T16:31:48.025Z,18.97
2023-04-11T16:34:17.117Z,18.47
2023-04-11T16:36:46.034Z,19.23
2023-04-11T16:39:14.963Z,19.10
2023-04-11T16:41:43.645Z,19.00
2023-04-11T16:44:12.244Z,18.70
2023-04-11T16:46:41.719Z,18.77
2023-04-11T16:49:12.369Z,18.10
2023-04-11T16:51:41.034Z,18.10
2023-04-11T16:54:12.943Z,18.30
2023-04-11T16:56:42.703Z,18.00
2023-04-11T16:59:12.389Z,18.10
2023-04-11T17:01:42.016Z,18.03
2023-04-11T17:04:12.868Z,19.20
2023-04-11T17:06:41.370Z,18.33
2023-04-11T17:09:10.062Z,18.20
2023-04-11T17:11:39.690Z,18.17
2023-04-11T17:14:08.022Z,17.73
2023-04-11T17:16:36.621Z,18.17
2023-04-11T17:19:05.009Z,18.03
2023-04-11T17:21:34.772Z,17.83
2023-04-11T17:24:03.461Z,17.53
2023-04-11T17:26:32.014Z,17.93
2023-04-11T17:29:00.571Z,17.83
2023-04-11T17:31:29.370Z,18.70
2023-04-11T17:33:58.384Z,18.67
2023-04-11T17:36:28.444Z,18.63
2023-04-11T17:38:58.179Z,17.90
2023-04-11T17:41:26.619Z,18.40
2023-04-11T17:43:57.929Z,18.17
2023-04-11T17:46:27.183Z,18.70
2023-04-11T17:48:55.792Z,17.07
2023-04-11T17:51:24.225Z,17.30
2023-04-11T17:53:52.659Z,17.27
2023-04-11T17:56:22.545Z,18.93
2023-04-11T17:58:51.229Z,16.50
2023-04-11T18:01:19.966Z,16.50
2023-04-11T18:03:48.555Z,17.17
2023-04-11T18:06:17.147Z,24.83
2023-04-11T18:08:51.132Z,16.93
2023-04-11T18:11:21.836Z,16.57
2023-04-11T18:13:53.825Z,16.20
2023-04-11T18:16:22.949Z,17.17
2023-04-11T18:18:51.353Z,17.00
2023-04-11T18:21:21.606Z,16.90
2023-04-11T18:23:50.546Z,17.40
2023-04-11T18:26:19.075Z,17.30
2023-04-11T18:28:48.962Z,17.00
2023-04-11T18:31:18.392Z,16.97
2023-04-11T18:33:48.129Z,17.77
2023-04-11T18:36:16.938Z,17.00
2023-04-11T18:38:45.714Z,17.17
2023-04-11T18:41:14.183Z,18.10
2023-04-11T18:43:42.780Z,18.33
2023-04-11T18:46:12.627Z,18.80
2023-04-11T18:48:41.301Z,17.50
2023-04-11T18:51:09.962Z,17.87
2023-04-11T18:53:39.479Z,17.57
2023-04-11T18:56:08.405Z,17.63
2023-04-11T18:58:45.135Z,20.47
2023-04-11T19:01:17.574Z,17.60
2023-04-11T19:03:46.840Z,17.60
2023-04-11T19:06:15.368Z,17.90
2023-04-11T19:08:43.927Z,19.20
2023-04-11T19:11:12.491Z,18.20
2023-04-11T19:13:41.217Z,17.90
2023-04-11T19:16:09.625Z,18.13
2023-04-11T19:18:39.380Z,18.10
2023-04-11T19:21:07.924Z,17.73
2023-04-11T19:23:36.278Z,18.23
2023-04-11T19:26:05.062Z,18.20
2023-04-11T19:28:33.622Z,19.00
2023-04-11T19:31:02.302Z,17.70
2023-04-11T19:33:30.729Z,17.50
2023-04-11T19:36:00.568Z,17.67
2023-04-11T19:38:28.944Z,17.60
2023-04-11T19:40:57.736Z,18.00
2023-04-11T19:43:26.424Z,17.77
2023-04-11T19:45:55.284Z,17.70
2023-04-11T19:48:23.677Z,17.87
2023-04-11T19:50:53.569Z,18.10
2023-04-11T19:53:23.420Z,17.93
2023-04-11T19:55:52.588Z,18.13
2023-04-11T19:58:22.223Z,18.40
2023-04-11T20:00:50.923Z,17.90
2023-04-11T20:03:21.344Z,18.17
2023-04-11T20:05:49.965Z,20.23
2023-04-11T20:08:19.015Z,18.70
2023-04-11T20:10:49.473Z,18.80
2023-04-11T20:13:18.297Z,18.13
2023-04-11T20:15:47.800Z,18.70
2023-04-11T20:18:17.072Z,18.90
2023-04-11T20:20:45.650Z,21.13
2023-04-11T20:23:15.857Z,18.77
2023-04-11T20:25:46.625Z,19.20
2023-04-11T20:28:16.233Z,19.27
2023-04-11T20:30:44.926Z,19.00
2023-04-11T20:33:13.474Z,19.50
2023-04-11T20:35:41.827Z,19.33
2023-04-11T20:38:10.238Z,19.60
2023-04-11T20:40:38.797Z,19.03
2023-04-11T20:43:07.258Z,18.87
2023-04-11T20:45:37.968Z,19.80
2023-04-11T20:48:08.894Z,19.30
2023-04-11T20:50:37.618Z,19.30
2023-04-11T20:53:06.163Z,19.13
2023-04-11T20:55:34.720Z,19.57
2023-04-11T20:58:03.882Z,19.40
2023-04-11T21:00:32.452Z,19.10
2023-04-11T21:03:02.421Z,20.00
2023-04-11T21:05:31.124Z,19.67
2023-04-11T21:07:59.683Z,19.70
2023-04-11T21:10:28.022Z,19.37
2023-04-11T21:12:56.324Z,19.17
2023-04-11T21:15:25.614Z,19.53
2023-04-11T21:17:54.106Z,20.40
2023-04-11T21:20:24.431Z,19.60
2023-04-11T21:22:54.299Z,20.10
2023-04-11T21:25:23.465Z,20.03
2023-04-11T21:27:52.036Z,19.70
2023-04-11T21:30:20.737Z,19.43
2023-04-11T21:32:49.199Z,20.10
2023-04-11T21:35:18.664Z,19.97
2023-04-11T21:37:49.229Z,20.07
2023-04-11T21:40:18.175Z,19.57
2023-04-11T21:42:46.497Z,19.50
2023-04-11T21:45:14.825Z,19.83
2023-04-11T21:47:43.170Z,19.70
2023-04-11T21:50:13.021Z,20.27
2023-04-11T21:52:43.626Z,19.70
2023-04-11T21:55:16.268Z,19.63
2023-04-11T21:57:44.943Z,19.70
2023-04-11T22:00:14.004Z,20.10
2023-04-11T22:02:42.789Z,20.27
2023-04-11T22:05:12.710Z,20.57
2023-04-11T22:07:47.632Z,20.37
2023-04-11T22:10:24.051Z,20.70
2023-04-11T22:12:54.625Z,20.10
2023-04-11T22:15:24.154Z,20.77
2023-04-11T22:17:54.542Z,20.43
2023-04-11T22:20:26.245Z,22.20
2023-04-11T22:22:56.846Z,20.87
2023-04-11T22:25:26.967Z,21.10
2023-04-11T22:27:55.405Z,21.17
2023-04-11T22:30:25.045Z,21.40
2023-04-11T22:32:55.580Z,21.07
2023-04-11T22:35:26.247Z,21.00
2023-04-11T22:37:57.364Z,21.23
2023-04-11T22:40:27.454Z,21.30
2023-04-11T22:42:55.932Z,21.17
2023-04-11T22:45:25.040Z,21.30
2023-04-11T22:47:56.949Z,21.53
2023-04-11T22:50:25.425Z,22.30
2023-04-11T22:52:54.897Z,21.80
2023-04-11T22:55:24.828Z,22.20
2023-04-11T22:57:54.687Z,22.80
2023-04-11T23:00:24.014Z,22.20
2023-04-11T23:02:52.631Z,22.87
2023-04-11T23:05:21.357Z,24.30
2023-04-11T23:07:49.783Z,22.97
2023-04-11T23:10:19.406Z,23.70
2023-04-11T23:12:49.212Z,23.50
2023-04-11T23:15:19.403Z,23.67
2023-04-11T23:17:47.754Z,24.20
2023-04-11T23:20:17.747Z,24.20
2023-04-11T23:22:46.179Z,25.10
2023-04-11T23:25:15.435Z,25.83
2023-04-11T23:27:44.627Z,25.97
2023-04-11T23:30:15.191Z,28.33
2023-04-11T23:32:45.109Z,26.13
2023-04-11T23:35:13.528Z,26.73
2023-04-11T23:37:42.110Z,27.70
2023-04-11T23:40:14.100Z,29.87
2023-04-11T23:42:43.170Z,27.70
2023-04-11T23:45:14.386Z,30.40
2023-04-11T23:47:44.272Z,30.10
2023-04-11T23:50:13.773Z,31.93
2023-04-11T23:52:42.952Z,32.27
2023-04-11T23:55:12.345Z,32.67
2023-04-11T23:57:40.659Z,34.90
